createdAt,value
2019-01-08T00:06:20.569Z,8.20
2019-01-08T00:08:30.690Z,8.18
2019-01-08T00:10:42.396Z,8.24
2019-01-08T00:11:42.303Z,8.21
2019-01-08T00:13:54.784Z,8.09
2019-01-08T00:14:54.711Z,7.89
2019-01-08T00:15:54.538Z,7.96
2019-01-08T00:16:54.655Z,7.99
2019-01-08T00:17:54.511Z,7.95
2019-01-08T00:18:54.504Z,7.94
2019-01-08T00:19:54.438Z,7.81
2019-01-08T00:20:54.519Z,7.77
2019-01-08T00:21:54.429Z,7.76
2019-01-08T00:22:54.404Z,7.67
2019-01-08T00:23:54.460Z,7.67
2019-01-08T00:24:54.557Z,7.69
2019-01-08T00:25:54.631Z,7.70
2019-01-08T00:26:54.624Z,7.57
2019-01-08T00:27:54.360Z,7.55
2019-01-08T00:28:54.376Z,7.50
2019-01-08T00:29:54.715Z,7.48
2019-01-08T00:30:56.942Z,7.47
2019-01-08T00:31:54.303Z,7.47
2019-01-08T00:32:54.470Z,7.48
2019-01-08T00:33:54.317Z,7.47
2019-01-08T00:34:54.272Z,7.33
2019-01-08T00:35:54.574Z,7.33
2019-01-08T00:36:54.369Z,7.39
2019-01-08T00:37:54.938Z,7.42
2019-01-08T00:42:16.803Z,7.33
2019-01-08T00:43:24.256Z,7.23
2019-01-08T00:46:11.759Z,7.21
2019-01-08T00:47:11.802Z,7.27
2019-01-08T00:48:11.258Z,7.29
2019-01-08T00:49:11.366Z,7.33
2019-01-08T00:50:11.363Z,7.27
2019-01-08T00:52:30.916Z,7.23
2019-01-08T00:53:49.103Z,7.26
2019-01-08T00:54:31.253Z,7.27
2019-01-08T00:57:11.116Z,7.27
2019-01-08T00:58:13.474Z,7.30
2019-01-08T00:59:21.629Z,7.34
2019-01-08T01:00:10.811Z,7.23
2019-01-08T01:02:35.095Z,7.41
2019-01-08T01:03:35.279Z,7.34
2019-01-08T01:05:30.976Z,7.36
2019-01-08T01:06:32.330Z,7.47
2019-01-08T01:07:41.125Z,7.36
2019-01-08T01:11:49.317Z,7.39
2019-01-08T01:13:44.223Z,7.42
2019-01-08T01:14:44.531Z,7.32
2019-01-08T01:16:48.209Z,7.36
2019-01-08T01:17:50.326Z,7.41
2019-01-08T01:19:00.876Z,7.42
2019-01-08T01:19:47.852Z,7.41
2019-01-08T01:20:47.934Z,7.48
2019-01-08T01:21:48.136Z,7.44
2019-01-08T01:22:47.580Z,7.54
2019-01-08T01:23:47.553Z,7.62
2019-01-08T01:24:47.610Z,7.57
2019-01-08T01:25:47.613Z,7.45
2019-01-08T01:26:47.622Z,7.47
2019-01-08T01:27:47.516Z,7.48
2019-01-08T01:28:47.550Z,7.48
2019-01-08T01:29:47.563Z,7.51
2019-01-08T01:31:05.750Z,7.39
2019-01-08T01:31:48.780Z,7.48
2019-01-08T01:32:47.582Z,7.36
2019-01-08T01:35:06.463Z,7.44
2019-01-08T01:37:15.909Z,7.41
2019-01-08T01:38:15.811Z,7.37
2019-01-08T01:41:34.182Z,7.37
2019-01-08T01:42:44.939Z,7.26
2019-01-08T01:43:35.507Z,7.36
2019-01-08T01:44:34.900Z,7.30
2019-01-08T01:45:33.960Z,7.30
2019-01-08T01:46:33.689Z,7.15
2019-01-08T01:47:33.659Z,7.19
2019-01-08T02:01:03.435Z,7.00
2019-01-08T02:02:07.324Z,6.96
2019-01-08T02:05:32.176Z,6.91
2019-01-08T02:08:08.491Z,6.94
2019-01-08T02:16:25.997Z,6.96
2019-01-08T02:17:26.474Z,6.99
2019-01-08T02:18:27.699Z,6.96
2019-01-08T03:13:54.752Z,7.08
2019-01-08T03:14:54.491Z,7.09
2019-01-08T03:33:11.981Z,7.04
2019-01-08T03:39:30.571Z,7.07
2019-01-08T03:44:36.351Z,7.04
2019-01-08T03:57:39.699Z,6.99
2019-01-08T04:08:39.566Z,6.96
2019-01-08T04:09:33.057Z,6.89
2019-01-08T04:35:10.101Z,6.76
2019-01-08T04:39:24.965Z,6.86
2019-01-08T04:43:14.274Z,6.81
2019-01-08T04:47:02.707Z,6.78
2019-01-08T05:14:33.228Z,6.24
2019-01-08T05:16:41.670Z,6.24
2019-01-08T05:17:40.949Z,6.20
2019-01-08T05:18:40.895Z,6.14
2019-01-08T05:19:41.014Z,6.16
2019-01-08T05:20:41.078Z,6.20
2019-01-08T05:21:40.745Z,6.17
2019-01-08T05:22:40.898Z,6.17
2019-01-08T05:23:40.811Z,6.11
2019-01-08T05:24:49.326Z,6.13
2019-01-08T05:25:41.457Z,6.19
2019-01-08T05:26:42.790Z,6.06
2019-01-08T05:27:43.112Z,6.01
2019-01-08T05:36:46.504Z,6.13
2019-01-08T05:42:39.825Z,6.10
2019-01-08T05:43:39.279Z,6.10
2019-01-08T05:46:07.829Z,6.19
2019-01-08T05:47:08.657Z,6.20
2019-01-08T05:49:25.383Z,6.21
2019-01-08T05:54:05.134Z,6.36
2019-01-08T05:55:04.685Z,6.35
2019-01-08T05:59:35.055Z,6.33
2019-01-08T06:04:18.771Z,6.33
2019-01-08T06:05:17.684Z,6.28
2019-01-08T06:06:17.697Z,6.30
2019-01-08T06:07:19.438Z,6.39
2019-01-08T06:09:35.983Z,6.33
2019-01-08T06:10:34.631Z,6.25
2019-01-08T06:11:35.411Z,6.24
2019-01-08T06:18:22.393Z,6.14
2019-01-08T06:21:48.752Z,6.25
2019-01-08T06:22:49.051Z,6.21
2019-01-08T06:23:48.369Z,6.24
2019-01-08T06:27:45.568Z,6.21
2019-01-08T06:29:55.028Z,6.20
2019-01-08T06:30:55.142Z,6.21
2019-01-08T06:31:54.562Z,6.24
2019-01-08T06:34:08.335Z,6.28
2019-01-08T06:35:17.983Z,6.24
2019-01-08T06:36:08.015Z,6.24
2019-01-08T06:38:29.391Z,6.27
2019-01-08T06:39:29.280Z,6.21
2019-01-08T06:40:36.318Z,6.35
2019-01-08T06:41:51.838Z,6.36
2019-01-08T06:42:38.921Z,6.39
2019-01-08T06:43:28.656Z,6.32
2019-01-08T06:44:28.150Z,6.33
2019-01-08T06:48:28.886Z,6.38
2019-01-08T06:49:27.716Z,6.28
2019-01-08T06:50:33.701Z,6.27
2019-01-08T06:51:29.779Z,6.40
2019-01-08T06:56:10.101Z,6.25
2019-01-08T07:11:08.569Z,6.33
2019-01-08T07:16:59.033Z,6.36
2019-01-08T07:17:59.534Z,6.35
2019-01-08T07:18:58.554Z,6.32
2019-01-08T07:19:58.637Z,6.36
2019-01-08T07:22:28.614Z,6.39
2019-01-08T07:32:18.270Z,6.40
2019-01-08T07:33:25.145Z,6.39
2019-01-08T07:34:18.373Z,6.42
2019-01-08T07:35:18.112Z,6.38
2019-01-08T07:36:41.966Z,6.36
2019-01-08T07:38:26.296Z,6.38
2019-01-08T07:39:24.504Z,6.43
2019-01-08T07:40:29.510Z,6.45
2019-01-08T07:42:41.649Z,6.45
2019-01-08T07:54:08.328Z,6.42
2019-01-08T07:57:49.116Z,6.51
2019-01-08T08:02:38.214Z,6.54
2019-01-08T08:06:12.635Z,6.53
2019-01-08T08:07:11.892Z,6.54
2019-01-08T08:08:11.952Z,6.48
2019-01-08T08:09:13.411Z,6.53
2019-01-08T08:10:11.800Z,6.50
2019-01-08T08:14:42.681Z,6.43
2019-01-08T08:15:42.611Z,6.48
2019-01-08T08:19:08.119Z,6.53
2019-01-08T08:20:04.319Z,6.54
2019-01-08T08:21:07.464Z,6.54
2019-01-08T08:22:04.116Z,6.57
2019-01-08T08:23:03.917Z,6.51
2019-01-08T08:26:13.843Z,6.53
2019-01-08T08:28:18.654Z,6.50
2019-01-08T08:29:17.920Z,6.43
2019-01-08T08:30:16.914Z,6.48
2019-01-08T08:31:16.796Z,6.48
2019-01-08T08:32:16.596Z,6.43
2019-01-08T08:33:16.622Z,6.53
2019-01-08T08:38:23.268Z,6.43
2019-01-08T08:39:25.694Z,6.40
2019-01-08T08:40:22.840Z,6.39
2019-01-08T08:41:22.814Z,6.40
2019-01-08T08:42:23.278Z,6.38
2019-01-08T08:43:22.834Z,6.25
2019-01-08T08:44:22.888Z,6.13
2019-01-08T08:45:23.743Z,6.20
2019-01-08T08:46:22.935Z,6.17
2019-01-08T08:48:19.279Z,6.14
2019-01-08T08:49:19.227Z,6.16
2019-01-08T08:50:30.649Z,6.05
2019-01-08T08:53:17.045Z,6.01
2019-01-08T08:54:14.945Z,6.03
2019-01-08T08:59:30.219Z,5.98
2019-01-08T09:01:41.378Z,6.05
2019-01-08T09:02:39.636Z,6.17
2019-01-08T09:03:39.336Z,6.08
2019-01-08T09:04:40.535Z,6.14
2019-01-08T09:07:54.190Z,6.19
2019-01-08T09:08:56.846Z,6.24
2019-01-08T09:09:52.568Z,6.20
2019-01-08T09:10:54.103Z,6.27
2019-01-08T09:14:19.369Z,6.20
2019-01-08T09:16:56.643Z,6.27
2019-01-08T09:19:15.071Z,6.17
2019-01-08T09:20:14.091Z,6.21
2019-01-08T09:21:13.523Z,6.25
2019-01-08T09:22:14.108Z,6.20
2019-01-08T09:23:13.373Z,6.19
2019-01-08T09:24:13.547Z,6.17
2019-01-08T09:27:03.559Z,6.20
2019-01-08T09:29:13.164Z,6.20
2019-01-08T09:33:56.206Z,6.17
2019-01-08T09:34:55.800Z,6.13
2019-01-08T09:39:19.138Z,6.02
2019-01-08T09:40:19.688Z,5.99
2019-01-08T09:41:18.986Z,6.03
2019-01-08T09:42:18.679Z,6.03
2019-01-08T09:46:07.389Z,5.90
2019-01-08T09:47:06.089Z,5.92
2019-01-08T09:48:06.712Z,5.90
2019-01-08T09:49:05.854Z,5.92
2019-01-08T09:53:15.685Z,6.01
2019-01-08T09:54:14.117Z,5.98
2019-01-08T09:55:14.224Z,6.01
2019-01-08T09:56:14.177Z,5.95
2019-01-08T09:57:26.338Z,6.06
2019-01-08T09:58:14.258Z,5.99
2019-01-08T09:59:26.284Z,5.98
2019-01-08T10:00:13.698Z,5.99
2019-01-08T10:04:17.411Z,6.19
2019-01-08T10:05:16.263Z,6.21
2019-01-08T10:06:23.525Z,6.20
2019-01-08T10:07:14.513Z,6.16
2019-01-08T10:08:13.897Z,6.16
2019-01-08T10:10:43.068Z,6.21
2019-01-08T10:14:27.097Z,6.27
2019-01-08T10:15:33.832Z,6.21
2019-01-08T10:23:22.284Z,6.32
2019-01-08T10:24:19.072Z,6.30
2019-01-08T10:29:13.791Z,6.25
2019-01-08T10:30:13.948Z,6.27
2019-01-08T10:32:45.143Z,6.36
2019-01-08T10:34:50.437Z,6.38
2019-01-08T10:36:00.937Z,6.45
2019-01-08T10:38:30.918Z,6.48
2019-01-08T10:39:31.903Z,6.45
2019-01-08T10:40:31.936Z,6.50
2019-01-08T10:41:31.061Z,6.53
2019-01-08T10:43:52.264Z,6.53
2019-01-08T10:44:50.914Z,6.53
2019-01-08T10:45:50.256Z,6.61
2019-01-08T10:50:22.026Z,6.64
2019-01-08T11:03:00.078Z,6.76
2019-01-08T11:03:59.938Z,6.71
2019-01-08T11:05:04.630Z,6.72
2019-01-08T11:05:59.745Z,6.69
2019-01-08T11:07:00.572Z,6.75
2019-01-08T11:07:59.651Z,6.71
2019-01-08T11:09:00.599Z,6.75
2019-01-08T11:09:59.562Z,6.79
2019-01-08T11:10:59.570Z,6.79
2019-01-08T11:12:04.501Z,6.83
2019-01-08T11:12:59.592Z,6.86
2019-01-08T11:13:59.575Z,6.78
2019-01-08T11:14:59.512Z,6.68
2019-01-08T11:16:00.583Z,6.79
2019-01-08T11:17:00.487Z,6.72
2019-01-08T11:17:59.472Z,6.69
2019-01-08T11:18:59.579Z,6.81
2019-01-08T11:19:59.442Z,6.76
2019-01-08T11:20:59.589Z,6.63
2019-01-08T11:21:59.496Z,6.68
2019-01-08T11:24:10.478Z,6.64
2019-01-08T11:25:11.129Z,6.54
2019-01-08T11:26:10.252Z,6.65
2019-01-08T11:27:10.397Z,6.57
2019-01-08T11:28:10.143Z,6.64
2019-01-08T11:29:11.042Z,6.63
2019-01-08T11:30:10.138Z,6.51
2019-01-08T11:31:10.163Z,6.51
2019-01-08T11:32:10.114Z,6.57
2019-01-08T11:33:22.122Z,6.48
2019-01-08T11:35:22.315Z,6.54
2019-01-08T11:36:27.621Z,6.55
2019-01-08T11:37:24.394Z,6.54
2019-01-08T11:38:21.803Z,6.57
2019-01-08T11:39:21.775Z,6.63
2019-01-08T11:40:21.807Z,6.58
2019-01-08T11:41:21.817Z,6.60
2019-01-08T11:42:21.766Z,6.65
2019-01-08T11:43:21.728Z,6.68
2019-01-08T11:44:21.812Z,6.81
2019-01-08T11:45:21.709Z,6.72
2019-01-08T11:46:21.712Z,6.72
2019-01-08T11:47:22.077Z,6.76
2019-01-08T11:48:21.673Z,6.82
2019-01-08T11:49:21.662Z,6.83
2019-01-08T11:50:21.676Z,6.94
2019-01-08T11:51:21.640Z,6.93
2019-01-08T11:52:21.682Z,6.93
2019-01-08T11:53:21.679Z,6.91
2019-01-08T11:54:22.006Z,6.89
2019-01-08T11:55:21.618Z,6.83
2019-01-08T11:56:24.881Z,6.87
2019-01-08T11:57:22.814Z,6.90
2019-01-08T11:58:21.608Z,6.90
2019-01-08T11:59:21.605Z,6.89
2019-01-08T12:00:21.546Z,6.87
2019-01-08T12:01:21.532Z,7.04
2019-01-08T12:02:21.560Z,6.87
2019-01-08T12:03:21.530Z,6.97
2019-01-08T12:04:21.518Z,6.90
2019-01-08T12:05:21.483Z,6.90
2019-01-08T12:06:21.485Z,6.99
2019-01-08T12:07:22.064Z,6.90
2019-01-08T12:08:21.467Z,6.89
2019-01-08T12:09:21.447Z,6.82
2019-01-08T12:10:21.590Z,6.96
2019-01-08T12:11:21.421Z,6.93
2019-01-08T12:12:21.416Z,6.94
2019-01-08T12:13:21.400Z,6.90
2019-01-08T12:14:21.417Z,6.96
2019-01-08T12:15:21.486Z,6.89
2019-01-08T12:16:21.365Z,6.72
2019-01-08T12:17:21.429Z,6.86
2019-01-08T12:18:21.347Z,6.90
2019-01-08T12:19:21.340Z,6.93
2019-01-08T12:20:21.329Z,6.89
2019-01-08T12:21:21.350Z,6.93
2019-01-08T12:22:21.574Z,6.91
2019-01-08T12:23:21.350Z,6.99
2019-01-08T12:24:21.284Z,6.97
2019-01-08T12:25:21.315Z,6.93
2019-01-08T12:26:21.317Z,6.86
2019-01-08T12:27:21.291Z,6.97
2019-01-08T12:28:21.340Z,6.94
2019-01-08T12:29:21.256Z,7.11
2019-01-08T12:30:21.221Z,7.08
2019-01-08T12:31:21.212Z,7.04
2019-01-08T12:32:21.250Z,7.16
2019-01-08T12:33:21.239Z,7.09
2019-01-08T12:34:21.230Z,7.11
2019-01-08T12:35:21.290Z,7.07
2019-01-08T12:36:21.175Z,7.12
2019-01-08T12:37:21.146Z,7.18
2019-01-08T12:38:21.172Z,7.14
2019-01-08T12:39:21.368Z,7.18
2019-01-08T12:40:21.098Z,7.23
2019-01-08T12:41:22.099Z,7.27
2019-01-08T12:42:21.128Z,7.36
2019-01-08T12:43:22.104Z,7.29
2019-01-08T12:44:21.206Z,7.26
2019-01-08T12:45:22.157Z,7.37
2019-01-08T12:46:21.126Z,7.33
2019-01-08T12:47:21.040Z,7.37
2019-01-08T12:48:21.149Z,7.36
2019-01-08T12:49:21.062Z,7.26
2019-01-08T12:50:25.544Z,7.44
2019-01-08T12:51:21.747Z,7.33
2019-01-08T12:52:21.276Z,7.34
2019-01-08T12:53:21.044Z,7.23
2019-01-08T12:54:20.959Z,7.34
2019-01-08T12:55:20.967Z,7.37
2019-01-08T12:56:20.925Z,7.37
2019-01-08T12:57:20.982Z,7.36
2019-01-08T12:58:20.911Z,7.27
2019-01-08T12:59:20.896Z,7.33
2019-01-08T13:00:20.898Z,7.27
2019-01-08T13:01:21.117Z,7.30
2019-01-08T13:02:20.913Z,7.32
2019-01-08T13:03:20.891Z,7.33
2019-01-08T13:04:20.883Z,7.19
2019-01-08T13:05:20.839Z,7.18
2019-01-08T13:06:20.870Z,7.08
2019-01-08T13:07:20.858Z,7.04
2019-01-08T13:08:20.804Z,7.01
2019-01-08T13:09:20.806Z,6.86
2019-01-08T13:10:20.785Z,6.87
2019-01-08T13:11:20.772Z,6.83
2019-01-08T13:12:20.777Z,6.81
2019-01-08T13:13:20.779Z,6.68
2019-01-08T13:14:20.766Z,6.71
2019-01-08T13:15:20.747Z,6.64
2019-01-08T13:16:20.709Z,6.64
2019-01-08T13:17:20.711Z,6.53
2019-01-08T13:18:20.680Z,6.55
2019-01-08T13:19:20.684Z,6.50
2019-01-08T13:20:22.629Z,6.53
2019-01-08T13:21:20.677Z,6.38
2019-01-08T13:22:20.705Z,6.46
2019-01-08T13:23:20.655Z,6.42
2019-01-08T13:24:20.706Z,6.42
2019-01-08T13:25:20.602Z,6.45
2019-01-08T13:26:20.603Z,6.42
2019-01-08T13:27:20.588Z,6.43
2019-01-08T13:28:20.582Z,6.43
2019-01-08T13:29:20.584Z,6.39
2019-01-08T13:30:20.558Z,6.39
2019-01-08T13:31:20.557Z,6.35
2019-01-08T13:32:23.215Z,6.43
2019-01-08T13:33:20.714Z,6.35
2019-01-08T13:34:20.523Z,6.43
2019-01-08T13:35:20.507Z,6.32
2019-01-08T13:36:20.492Z,6.35
2019-01-08T13:37:20.856Z,6.40
2019-01-08T13:38:21.113Z,6.32
2019-01-08T13:39:20.527Z,6.20
2019-01-08T13:41:50.886Z,5.93
2019-01-08T13:42:51.230Z,5.69
2019-01-08T13:43:50.519Z,5.59
2019-01-08T13:44:50.550Z,5.59
2019-01-08T13:45:50.496Z,5.48
2019-01-08T13:46:50.755Z,5.48
2019-01-08T13:47:50.964Z,5.45
2019-01-08T13:48:50.458Z,5.41
2019-01-08T13:49:50.536Z,5.41
2019-01-08T13:50:50.579Z,5.41
2019-01-08T13:51:50.466Z,5.44
2019-01-08T13:52:50.409Z,5.33
2019-01-08T13:53:50.419Z,5.42
2019-01-08T13:54:50.397Z,5.30
2019-01-08T13:55:50.407Z,5.32
2019-01-08T13:56:50.428Z,5.33
2019-01-08T13:57:50.480Z,5.38
2019-01-08T13:58:50.410Z,5.37
2019-01-08T13:59:50.362Z,5.19
2019-01-08T14:00:50.333Z,5.30
2019-01-08T14:01:50.335Z,5.22
2019-01-08T14:02:50.352Z,5.27
2019-01-08T14:03:50.457Z,5.24
2019-01-08T14:04:51.003Z,5.30
2019-01-08T14:05:50.968Z,5.33
2019-01-08T14:06:50.297Z,5.26
2019-01-08T14:07:50.270Z,5.33
2019-01-08T14:08:50.363Z,5.29
2019-01-08T14:09:50.226Z,5.30
2019-01-08T14:10:56.402Z,5.24
2019-01-08T14:11:51.523Z,5.27
2019-01-08T14:12:51.516Z,5.20
2019-01-08T14:13:50.989Z,5.24
2019-01-08T14:17:27.491Z,5.23
2019-01-08T14:18:25.680Z,5.20
2019-01-08T14:20:38.935Z,5.30
2019-01-08T14:21:39.175Z,5.22
2019-01-08T14:22:44.287Z,5.26
2019-01-08T14:23:38.824Z,5.22
2019-01-08T14:24:38.804Z,5.19
2019-01-08T14:25:38.743Z,5.20
2019-01-08T14:26:38.731Z,5.15
2019-01-08T14:27:38.777Z,5.20
2019-01-08T14:28:38.741Z,5.27
2019-01-08T14:29:38.729Z,5.29
2019-01-08T14:30:38.675Z,5.26
2019-01-08T14:31:38.687Z,5.26
2019-01-08T14:32:40.799Z,5.26
2019-01-08T14:33:38.659Z,5.24
2019-01-08T14:34:38.634Z,5.24
2019-01-08T14:35:38.628Z,5.32
2019-01-08T14:36:38.701Z,5.19
2019-01-08T14:37:38.633Z,5.26
2019-01-08T14:38:38.621Z,5.27
2019-01-08T14:39:38.618Z,5.38
2019-01-08T14:40:38.580Z,5.37
2019-01-08T14:41:38.556Z,5.30
2019-01-08T14:42:38.569Z,5.30
2019-01-08T14:43:38.525Z,5.41
2019-01-08T14:44:38.804Z,5.42
2019-01-08T14:45:38.568Z,5.41
2019-01-08T14:46:41.395Z,5.41
2019-01-08T14:47:38.801Z,5.55
2019-01-08T14:50:33.793Z,5.58
2019-01-08T14:51:33.415Z,5.56
2019-01-08T14:52:33.363Z,5.55
2019-01-08T14:53:33.271Z,5.55
2019-01-08T14:54:33.220Z,5.56
2019-01-08T14:55:33.230Z,5.47
2019-01-08T14:56:33.414Z,5.51
2019-01-08T14:57:33.456Z,5.44
2019-01-08T14:58:33.136Z,5.49
2019-01-08T14:59:33.123Z,5.47
2019-01-08T15:00:33.562Z,5.40
2019-01-08T15:01:33.113Z,5.41
2019-01-08T15:02:33.104Z,5.35
2019-01-08T15:03:33.238Z,5.33
2019-01-08T15:04:33.193Z,5.37
2019-01-08T15:05:33.049Z,5.35
2019-01-08T15:06:33.865Z,5.35
2019-01-08T15:07:33.072Z,5.24
2019-01-08T15:08:33.088Z,5.29
2019-01-08T15:15:56.892Z,5.45
2019-01-08T15:16:56.930Z,5.38
2019-01-08T15:17:55.968Z,5.42
2019-01-08T15:18:55.680Z,5.32
2019-01-08T15:19:55.704Z,5.44
2019-01-08T15:20:55.654Z,5.30
2019-01-08T15:21:55.708Z,5.41
2019-01-08T15:22:55.627Z,5.48
2019-01-08T15:25:57.985Z,5.58
2019-01-08T15:32:26.197Z,5.62
2019-01-08T15:33:27.237Z,5.63
2019-01-08T15:37:28.530Z,5.66
2019-01-08T15:38:28.412Z,5.62
2019-01-08T15:44:15.362Z,5.65
2019-01-08T15:49:12.267Z,5.73
2019-01-08T15:52:03.395Z,5.65
2019-01-08T15:52:56.615Z,5.58
2019-01-08T15:53:58.096Z,5.65
2019-01-08T15:54:57.544Z,5.73
2019-01-08T15:55:55.538Z,5.75
2019-01-08T15:56:55.547Z,5.70
2019-01-08T15:59:47.778Z,5.83
2019-01-08T16:03:57.151Z,5.80
2019-01-08T16:10:17.573Z,5.75
2019-01-08T16:11:16.641Z,5.63
2019-01-08T16:12:16.610Z,5.74
2019-01-08T16:13:18.287Z,5.73
2019-01-08T16:14:16.467Z,5.58
2019-01-08T16:15:16.460Z,5.51
2019-01-08T16:16:16.499Z,5.51
2019-01-08T16:17:17.072Z,5.48
2019-01-08T16:18:16.593Z,5.38
2019-01-08T16:19:18.013Z,5.29
2019-01-08T16:20:16.410Z,5.32
2019-01-08T16:21:16.382Z,5.35
2019-01-08T16:22:18.325Z,5.24
2019-01-08T16:24:29.044Z,5.24
2019-01-08T16:25:28.979Z,5.22
2019-01-08T16:26:29.488Z,5.20
2019-01-08T16:27:36.243Z,5.24
2019-01-08T16:29:40.182Z,5.23
2019-01-08T16:30:42.020Z,5.22
2019-01-08T16:31:39.594Z,5.24
2019-01-08T16:32:39.112Z,5.23
2019-01-08T16:33:39.197Z,5.15
2019-01-08T16:35:50.508Z,5.20
2019-01-08T16:36:49.933Z,5.09
2019-01-08T16:37:50.155Z,5.22
2019-01-08T16:38:49.907Z,5.15
2019-01-08T16:39:49.846Z,5.14
2019-01-08T16:40:49.840Z,5.15
2019-01-08T16:41:49.829Z,5.12
2019-01-08T16:42:49.842Z,5.17
2019-01-08T16:43:50.609Z,5.15
2019-01-08T16:44:49.780Z,5.19
2019-01-08T16:45:49.850Z,5.11
2019-01-08T16:46:49.806Z,5.24
2019-01-08T16:47:50.577Z,5.15
2019-01-08T16:48:49.899Z,5.17
2019-01-08T16:49:53.268Z,5.14
2019-01-08T16:50:50.493Z,5.17
2019-01-08T16:51:49.713Z,5.22
2019-01-08T16:52:50.167Z,5.23
2019-01-08T16:53:49.754Z,5.23
2019-01-08T16:54:49.795Z,5.26
2019-01-08T16:55:49.836Z,5.38
2019-01-08T16:56:49.753Z,5.42
2019-01-08T16:57:49.649Z,5.44
2019-01-08T16:58:49.685Z,5.40
2019-01-08T16:59:49.723Z,5.30
2019-01-08T17:00:49.651Z,5.32
2019-01-08T17:01:49.702Z,5.27
2019-01-08T17:02:49.587Z,5.22
2019-01-08T17:03:49.669Z,5.17
2019-01-08T17:04:50.139Z,5.12
2019-01-08T17:05:49.606Z,5.17
2019-01-08T17:06:49.726Z,5.06
2019-01-08T17:07:49.531Z,5.02
2019-01-08T17:08:49.602Z,5.08
2019-01-08T17:09:49.591Z,4.94
2019-01-08T17:10:50.159Z,4.99
2019-01-08T17:13:00.817Z,4.88
2019-01-08T17:14:00.404Z,4.68
2019-01-08T17:15:00.379Z,4.57
2019-01-08T17:16:00.492Z,4.36
2019-01-08T17:17:00.210Z,4.21
2019-01-08T17:18:00.172Z,4.10
2019-01-08T17:19:00.173Z,3.95
2019-01-08T17:20:00.269Z,3.89
2019-01-08T17:21:00.163Z,3.89
2019-01-08T17:22:00.129Z,3.84
2019-01-08T17:23:00.153Z,3.89
2019-01-08T17:24:00.115Z,3.88
2019-01-08T17:25:00.482Z,3.88
2019-01-08T17:26:00.585Z,3.90
2019-01-08T17:27:00.078Z,3.93
2019-01-08T17:28:00.070Z,3.96
2019-01-08T17:29:00.048Z,3.96
2019-01-08T17:30:00.029Z,3.95
2019-01-08T17:31:00.093Z,3.93
2019-01-08T17:32:00.111Z,3.93
2019-01-08T17:33:00.001Z,3.86
2019-01-08T17:34:00.239Z,3.82
2019-01-08T17:34:59.980Z,3.88
2019-01-08T17:36:00.220Z,3.95
2019-01-08T17:37:00.054Z,3.92
2019-01-08T17:37:59.943Z,4.00
2019-01-08T17:38:59.946Z,3.96
2019-01-08T17:39:59.922Z,3.99
2019-01-08T17:40:59.922Z,3.90
2019-01-08T17:41:59.926Z,4.04
2019-01-08T17:42:59.885Z,4.00
2019-01-08T17:43:59.880Z,3.99
2019-01-08T17:44:59.856Z,3.96
2019-01-08T17:45:59.888Z,3.99
2019-01-08T17:46:59.902Z,4.04
2019-01-08T17:47:59.875Z,3.99
2019-01-08T17:48:59.849Z,4.06
2019-01-08T17:49:59.806Z,4.14
2019-01-08T17:50:59.863Z,4.13
2019-01-08T17:51:59.882Z,4.14
2019-01-08T17:52:59.804Z,4.16
2019-01-08T17:53:59.794Z,4.08
2019-01-08T17:54:59.906Z,4.25
2019-01-08T17:56:00.483Z,4.26
2019-01-08T17:56:59.736Z,4.29
2019-01-08T17:57:59.831Z,4.38
2019-01-08T17:58:59.976Z,4.47
2019-01-08T18:00:00.429Z,4.46
2019-01-08T18:01:00.097Z,4.46
2019-01-08T18:05:57.143Z,4.91
2019-01-08T18:08:30.468Z,5.04
2019-01-08T18:09:19.514Z,5.01
2019-01-08T18:10:18.948Z,5.01
2019-01-08T18:11:18.859Z,5.01
2019-01-08T18:12:18.791Z,5.11
2019-01-08T18:13:18.775Z,5.17
2019-01-08T18:14:18.796Z,5.20
2019-01-08T18:15:18.769Z,5.17
2019-01-08T18:16:18.743Z,5.14
2019-01-08T18:17:18.738Z,5.20
2019-01-08T18:18:18.731Z,5.19
2019-01-08T18:19:18.722Z,5.17
2019-01-08T18:20:18.777Z,5.11
2019-01-08T18:21:18.716Z,5.11
2019-01-08T18:22:18.779Z,5.11
2019-01-08T18:23:18.701Z,5.09
2019-01-08T18:24:18.657Z,5.17
2019-01-08T18:25:25.335Z,5.20
2019-01-08T18:26:18.722Z,5.12
2019-01-08T18:27:18.665Z,5.24
2019-01-08T18:28:18.687Z,5.17
2019-01-08T18:29:18.636Z,5.14
2019-01-08T18:30:18.598Z,5.09
2019-01-08T18:31:19.515Z,5.19
2019-01-08T18:32:18.593Z,5.19
2019-01-08T18:33:34.321Z,5.19
2019-01-08T18:34:36.386Z,5.17
2019-01-08T18:35:19.610Z,5.11
2019-01-08T18:36:18.641Z,5.14
2019-01-08T18:37:18.687Z,5.06
2019-01-08T18:38:18.675Z,5.04
2019-01-08T18:39:18.547Z,5.11
2019-01-08T18:40:18.767Z,5.06
2019-01-08T18:41:18.556Z,5.08
2019-01-08T18:42:18.517Z,5.09
2019-01-08T18:43:18.452Z,5.09
2019-01-08T18:44:18.475Z,5.06
2019-01-08T18:45:18.666Z,5.08
2019-01-08T18:46:18.499Z,5.12
2019-01-08T18:47:18.547Z,5.06
2019-01-08T18:48:18.564Z,5.04
2019-01-08T18:49:18.558Z,5.11
2019-01-08T18:50:18.436Z,5.01
2019-01-08T18:51:19.031Z,5.01
2019-01-08T18:52:18.438Z,4.94
2019-01-08T18:53:18.370Z,5.05
2019-01-08T18:54:18.943Z,5.02
2019-01-08T18:55:18.410Z,5.14
2019-01-08T18:56:20.273Z,5.04
2019-01-08T18:58:30.084Z,5.01
2019-01-08T18:59:29.229Z,4.93
2019-01-08T19:00:29.364Z,4.99
2019-01-08T19:01:29.277Z,4.94
2019-01-08T19:02:29.442Z,4.87
2019-01-08T19:03:29.850Z,4.87
2019-01-08T19:04:29.029Z,4.84
2019-01-08T19:05:28.973Z,4.69
2019-01-08T19:06:28.963Z,4.74
2019-01-08T19:07:29.779Z,4.75
2019-01-08T19:08:29.496Z,4.69
2019-01-08T19:10:41.456Z,4.69
2019-01-08T19:11:41.270Z,4.67
2019-01-08T19:12:40.792Z,4.71
2019-01-08T19:13:41.028Z,4.71
2019-01-08T19:14:40.681Z,4.74
2019-01-08T19:15:40.841Z,4.69
2019-01-08T19:16:40.596Z,4.69
2019-01-08T19:17:40.701Z,4.74
2019-01-08T19:20:06.287Z,4.79
2019-01-08T19:21:06.165Z,4.86
2019-01-08T19:22:05.522Z,4.84
2019-01-08T19:23:05.676Z,4.91
2019-01-08T19:24:05.906Z,4.94
2019-01-08T19:25:05.724Z,4.88
2019-01-08T19:26:05.437Z,4.94
2019-01-08T19:27:05.600Z,4.90
2019-01-08T19:28:05.449Z,4.90
2019-01-08T19:29:07.055Z,4.90
2019-01-08T19:30:05.492Z,4.86
2019-01-08T19:32:25.264Z,4.88
2019-01-08T19:33:23.049Z,4.88
2019-01-08T19:34:23.162Z,4.75
2019-01-08T19:35:31.248Z,4.77
2019-01-08T19:36:24.013Z,4.80
2019-01-08T19:37:23.105Z,4.79
2019-01-08T19:38:23.355Z,4.77
2019-01-08T19:39:22.991Z,4.86
2019-01-08T19:40:22.922Z,4.84
2019-01-08T19:41:22.928Z,4.86
2019-01-08T19:42:22.999Z,4.79
2019-01-08T19:43:22.900Z,4.80
2019-01-08T19:44:22.852Z,4.75
2019-01-08T19:45:22.864Z,4.84
2019-01-08T19:46:22.907Z,4.77
2019-01-08T19:47:22.790Z,4.79
2019-01-08T19:48:22.894Z,4.71
2019-01-08T19:49:22.861Z,4.75
2019-01-08T19:50:24.825Z,4.74
2019-01-08T19:51:22.764Z,4.72
2019-01-08T19:52:22.746Z,4.77
2019-01-08T19:53:24.339Z,4.80
2019-01-08T19:54:22.764Z,4.80
2019-01-08T19:55:22.795Z,4.84
2019-01-08T19:56:22.704Z,4.88
2019-01-08T19:57:22.737Z,4.90
2019-01-08T19:58:23.536Z,4.88
2019-01-08T19:59:22.819Z,4.87
2019-01-08T20:03:45.341Z,4.90
2019-01-08T20:04:34.828Z,4.88
2019-01-08T20:05:35.112Z,4.90
2019-01-08T20:06:33.984Z,4.88
2019-01-08T20:07:33.988Z,4.87
2019-01-08T20:08:34.187Z,4.94
2019-01-08T20:09:52.429Z,4.96
2019-01-08T20:10:34.366Z,4.93
2019-01-08T20:11:33.930Z,4.87
2019-01-08T20:12:33.932Z,4.94
2019-01-08T20:13:36.302Z,4.91
2019-01-08T20:14:34.018Z,4.88
2019-01-08T20:15:36.095Z,4.90
2019-01-08T20:17:52.179Z,4.86
2019-01-08T20:18:52.057Z,4.80
2019-01-08T20:19:51.934Z,4.80
2019-01-08T20:23:11.081Z,4.77
2019-01-08T20:24:07.701Z,4.74
2019-01-08T20:25:07.746Z,4.80
2019-01-08T20:26:11.887Z,4.87
2019-01-08T20:27:07.512Z,4.86
2019-01-08T20:28:07.609Z,4.80
2019-01-08T20:29:07.480Z,4.79
2019-01-08T20:30:07.473Z,4.80
2019-01-08T20:31:08.904Z,4.75
2019-01-08T20:32:07.496Z,4.79
2019-01-08T20:33:07.453Z,4.77
2019-01-08T20:34:08.376Z,4.83
2019-01-08T20:45:49.088Z,4.93
2019-01-08T20:46:48.517Z,4.86
2019-01-08T20:47:48.452Z,4.90
2019-01-08T20:48:48.494Z,4.96
2019-01-08T20:49:48.922Z,4.97
2019-01-08T20:50:48.428Z,4.91
2019-01-08T20:51:48.462Z,5.12
2019-01-08T20:52:48.400Z,4.96
2019-01-08T20:53:48.453Z,5.11
2019-01-08T20:54:48.489Z,5.01
2019-01-08T20:57:08.604Z,4.99
2019-01-08T20:58:01.111Z,5.09
2019-01-08T20:59:03.145Z,5.11
2019-01-08T21:00:00.173Z,5.14
2019-01-08T21:00:59.983Z,4.94
2019-01-08T21:02:00.020Z,5.01
2019-01-08T21:03:00.044Z,5.09
2019-01-08T21:03:59.983Z,5.08
2019-01-08T21:05:01.174Z,5.09
2019-01-08T21:06:00.605Z,5.05
2019-01-08T21:06:59.939Z,5.09
2019-01-08T21:08:01.186Z,5.12
2019-01-08T21:09:00.064Z,5.06
2019-01-08T21:10:01.057Z,5.15
2019-01-08T21:11:00.423Z,5.09
2019-01-08T21:12:03.216Z,5.08
2019-01-08T21:13:00.949Z,5.08
2019-01-08T21:13:59.885Z,5.15
2019-01-08T21:14:59.842Z,5.12
2019-01-08T21:16:00.373Z,5.12
2019-01-08T21:16:59.827Z,5.11
2019-01-08T21:17:59.786Z,5.12
2019-01-08T21:19:00.046Z,5.11
2019-01-08T21:19:59.830Z,5.14
2019-01-08T21:25:37.871Z,5.06
2019-01-08T21:26:37.929Z,5.12